createdAt,value
2017-10-16T00:01:34.650Z,6.90
2017-10-16T00:04:02.207Z,6.50
2017-10-16T00:06:29.787Z,6.27
2017-10-16T00:08:57.359Z,6.13
2017-10-16T00:11:24.908Z,6.50
2017-10-16T00:13:52.458Z,6.90
2017-10-16T00:16:20.029Z,6.10
2017-10-16T00:18:47.564Z,5.47
2017-10-16T00:21:15.876Z,5.50
2017-10-16T00:23:43.417Z,5.67
2017-10-16T00:26:11.764Z,4.67
2017-10-16T00:28:39.374Z,4.93
2017-10-16T00:31:06.937Z,4.90
2017-10-16T00:33:35.634Z,3.10
2017-10-16T00:36:03.183Z,3.73
2017-10-16T00:38:34.008Z,3.10
2017-10-16T00:41:02.313Z,3.50
2017-10-16T00:43:29.875Z,2.90
2017-10-16T00:45:59.859Z,3.30
2017-10-16T00:48:27.469Z,4.10
2017-10-16T00:50:55.090Z,3.50
2017-10-16T00:53:22.768Z,3.40
2017-10-16T00:55:51.342Z,2.90
2017-10-16T00:58:21.294Z,3.00
2017-10-16T01:00:48.858Z,3.20
2017-10-16T01:03:17.203Z,2.70
2017-10-16T01:05:44.791Z,3.27
2017-10-16T01:08:12.825Z,3.17
2017-10-16T01:10:40.387Z,3.00
2017-10-16T01:13:07.943Z,2.60
2017-10-16T01:15:35.558Z,3.00
2017-10-16T01:18:03.139Z,2.60
2017-10-16T01:20:32.978Z,2.30
2017-10-16T01:23:00.602Z,2.97
2017-10-16T01:25:29.169Z,3.10
2017-10-16T01:27:57.580Z,3.23
2017-10-16T01:30:25.192Z,2.87
2017-10-16T01:32:52.827Z,3.60
2017-10-16T01:35:21.177Z,3.07
2017-10-16T01:37:48.793Z,3.50
2017-10-16T01:40:16.372Z,3.37
2017-10-16T01:42:43.946Z,2.90
2017-10-16T01:45:11.525Z,3.50
2017-10-16T01:47:41.132Z,3.20
2017-10-16T01:50:08.688Z,3.43
2017-10-16T01:52:36.258Z,3.67
2017-10-16T01:55:03.862Z,3.60
2017-10-16T01:57:32.320Z,3.60
2017-10-16T01:59:59.916Z,3.43
2017-10-16T02:02:28.239Z,3.20
2017-10-16T02:04:55.852Z,4.13
2017-10-16T02:07:23.415Z,4.30
2017-10-16T02:09:51.033Z,3.67
2017-10-16T02:12:18.594Z,3.77
2017-10-16T02:14:46.154Z,3.83
2017-10-16T02:17:13.759Z,4.07
2017-10-16T02:19:41.336Z,3.77
2017-10-16T02:22:10.614Z,4.33
2017-10-16T02:24:38.999Z,3.57
2017-10-16T02:27:06.557Z,4.20
2017-10-16T02:29:35.121Z,3.77
2017-10-16T02:32:02.668Z,3.23
2017-10-16T02:34:30.996Z,3.60
2017-10-16T02:36:58.571Z,3.80
2017-10-16T02:39:26.128Z,3.73
2017-10-16T02:41:53.710Z,3.70
2017-10-16T02:44:21.306Z,4.50
2017-10-16T02:46:49.623Z,4.73
2017-10-16T02:49:17.215Z,4.47
2017-10-16T02:51:44.793Z,4.10
2017-10-16T02:54:12.362Z,3.63
2017-10-16T02:56:39.977Z,4.10
2017-10-16T02:59:07.563Z,4.00
2017-10-16T03:01:35.121Z,3.90
2017-10-16T03:04:02.687Z,4.27
2017-10-16T03:06:30.290Z,4.00
2017-10-16T03:08:57.892Z,3.53
2017-10-16T03:11:25.462Z,3.90
2017-10-16T03:13:53.078Z,3.43
2017-10-16T03:16:20.667Z,4.00
2017-10-16T03:18:48.994Z,3.23
2017-10-16T03:21:16.561Z,3.27
2017-10-16T03:23:44.141Z,3.40
2017-10-16T03:26:11.756Z,3.40
2017-10-16T03:28:40.100Z,2.97
2017-10-16T03:31:07.655Z,3.70
2017-10-16T03:33:35.216Z,3.90
2017-10-16T03:36:02.813Z,3.20
2017-10-16T03:38:31.185Z,3.40
2017-10-16T03:40:58.769Z,3.30
2017-10-16T03:43:27.122Z,3.20
2017-10-16T03:45:54.749Z,3.50
2017-10-16T03:48:22.372Z,3.50
2017-10-16T03:50:50.017Z,2.67
2017-10-16T03:53:17.582Z,2.60
2017-10-16T03:55:45.181Z,3.43
2017-10-16T03:58:14.099Z,3.70
2017-10-16T04:00:41.710Z,3.63
2017-10-16T04:03:09.331Z,3.30
2017-10-16T04:05:36.898Z,3.30
2017-10-16T04:08:04.525Z,3.00
2017-10-16T04:10:32.187Z,2.93
2017-10-16T04:12:59.712Z,2.70
2017-10-16T04:15:27.394Z,2.77
2017-10-16T04:17:54.980Z,3.00
2017-10-16T04:20:22.676Z,3.30
2017-10-16T04:22:51.057Z,3.00
2017-10-16T04:25:19.415Z,3.20
2017-10-16T04:27:47.078Z,2.77
2017-10-16T04:30:14.676Z,2.83
2017-10-16T04:32:43.060Z,2.93
2017-10-16T04:35:11.392Z,3.00
2017-10-16T04:37:38.972Z,2.40
2017-10-16T04:40:06.529Z,2.80
2017-10-16T04:42:34.086Z,2.60
2017-10-16T04:45:01.637Z,2.80
2017-10-16T04:47:29.209Z,2.60
2017-10-16T04:49:56.773Z,3.17
2017-10-16T04:52:24.344Z,2.33
2017-10-16T04:54:53.789Z,2.50
2017-10-16T04:57:22.323Z,2.57
2017-10-16T04:59:49.930Z,3.20
2017-10-16T05:02:17.490Z,2.77
2017-10-16T05:04:45.249Z,2.90
2017-10-16T05:07:13.594Z,2.97
2017-10-16T05:09:41.159Z,2.57
2017-10-16T05:12:08.785Z,2.40
2017-10-16T05:14:37.158Z,3.00
2017-10-16T05:17:05.408Z,2.83
2017-10-16T05:19:33.021Z,3.27
2017-10-16T05:22:00.620Z,3.43
2017-10-16T05:24:28.207Z,3.03
2017-10-16T05:26:55.785Z,2.60
2017-10-16T05:29:23.339Z,3.60
2017-10-16T05:31:50.923Z,3.50
2017-10-16T05:34:18.497Z,4.20
2017-10-16T05:36:46.106Z,3.80
2017-10-16T05:39:13.690Z,3.77
2017-10-16T05:41:41.251Z,3.90
2017-10-16T05:44:08.827Z,3.40
2017-10-16T05:46:36.464Z,3.00
2017-10-16T05:49:04.840Z,3.10
2017-10-16T05:51:33.343Z,3.00
2017-10-16T05:54:00.910Z,3.10
2017-10-16T05:56:28.500Z,3.23
2017-10-16T05:58:56.148Z,3.00
2017-10-16T06:01:23.781Z,2.80
2017-10-16T06:03:52.081Z,3.43
2017-10-16T06:06:23.506Z,3.33
2017-10-16T06:08:51.080Z,3.07
2017-10-16T06:11:19.443Z,3.23
2017-10-16T06:13:46.999Z,2.97
2017-10-16T06:16:14.679Z,3.37
2017-10-16T06:18:42.299Z,2.97
2017-10-16T06:21:09.909Z,3.40
2017-10-16T06:23:37.507Z,3.40
2017-10-16T06:26:05.842Z,2.90
2017-10-16T06:28:33.495Z,3.20
2017-10-16T06:31:01.136Z,3.13
2017-10-16T06:33:28.821Z,3.47
2017-10-16T06:35:56.467Z,3.40
2017-10-16T06:38:24.878Z,3.07
2017-10-16T06:40:52.509Z,3.63
2017-10-16T06:43:20.915Z,3.60
2017-10-16T06:45:48.478Z,3.17
2017-10-16T06:48:16.122Z,3.30
2017-10-16T06:50:44.494Z,3.27
2017-10-16T06:53:12.844Z,3.77
2017-10-16T06:55:40.455Z,3.90
2017-10-16T06:58:08.955Z,4.00
2017-10-16T07:00:36.545Z,3.67
2017-10-16T07:03:04.067Z,3.00
2017-10-16T07:05:32.397Z,2.70
2017-10-16T07:07:59.967Z,3.87
2017-10-16T07:10:27.587Z,3.00
2017-10-16T07:12:55.184Z,3.00
2017-10-16T07:15:22.781Z,3.13
2017-10-16T07:17:50.454Z,3.70
2017-10-16T07:20:18.049Z,3.60
2017-10-16T07:22:46.670Z,3.60
2017-10-16T07:25:14.309Z,3.77
2017-10-16T07:27:41.845Z,3.60
2017-10-16T07:30:10.241Z,3.27
2017-10-16T07:32:38.583Z,4.10
2017-10-16T07:35:06.215Z,3.80
2017-10-16T07:37:33.768Z,4.17
2017-10-16T07:40:02.130Z,3.83
2017-10-16T07:42:29.738Z,3.93
2017-10-16T07:44:57.955Z,4.50
2017-10-16T07:47:25.751Z,4.70
2017-10-16T07:49:53.357Z,4.87
2017-10-16T07:52:21.170Z,4.90
2017-10-16T07:54:49.106Z,4.63
2017-10-16T07:57:16.917Z,5.37
2017-10-16T07:59:45.262Z,4.83
2017-10-16T08:02:12.962Z,5.37
2017-10-16T08:04:40.678Z,5.17
2017-10-16T08:07:09.228Z,4.97
2017-10-16T08:09:37.360Z,5.03
2017-10-16T08:12:07.142Z,5.10
2017-10-16T08:14:34.910Z,5.03
2017-10-16T08:17:02.532Z,5.10
2017-10-16T08:19:30.216Z,4.83
2017-10-16T08:21:57.786Z,5.27
2017-10-16T08:24:26.246Z,5.70
2017-10-16T08:26:53.833Z,5.43
2017-10-16T08:29:21.563Z,4.90
2017-10-16T08:31:49.181Z,5.20
2017-10-16T08:34:17.618Z,5.33
2017-10-16T08:36:45.188Z,5.17
2017-10-16T08:39:12.913Z,5.40
2017-10-16T08:41:40.561Z,5.13
2017-10-16T08:44:08.978Z,5.40
2017-10-16T08:46:36.590Z,5.10
2017-10-16T08:49:04.197Z,5.20
2017-10-16T08:51:31.819Z,5.67
2017-10-16T08:53:59.373Z,5.00
2017-10-16T08:56:26.972Z,5.37
2017-10-16T08:58:55.318Z,5.50
2017-10-16T09:01:22.913Z,5.33
2017-10-16T09:03:51.246Z,5.20
2017-10-16T09:06:18.845Z,5.30
2017-10-16T09:08:46.398Z,5.60
2017-10-16T09:11:14.014Z,5.13
2017-10-16T09:13:41.636Z,5.37
2017-10-16T09:16:09.853Z,4.90
2017-10-16T09:18:38.221Z,5.33
2017-10-16T09:21:06.665Z,4.93
2017-10-16T09:23:34.480Z,4.97
2017-10-16T09:26:02.182Z,4.87
2017-10-16T09:28:29.800Z,4.90
2017-10-16T09:30:58.268Z,4.63
2017-10-16T09:33:25.863Z,5.13
2017-10-16T09:35:54.298Z,4.90
2017-10-16T09:38:21.920Z,5.07
2017-10-16T09:40:50.842Z,4.80
2017-10-16T09:43:18.732Z,4.60
2017-10-16T09:45:46.636Z,5.00
2017-10-16T09:48:15.359Z,4.70
2017-10-16T09:50:43.698Z,5.13
2017-10-16T09:53:11.258Z,4.37
2017-10-16T09:55:41.733Z,5.23
2017-10-16T09:58:10.741Z,4.70
2017-10-16T10:00:39.941Z,4.80
2017-10-16T10:03:09.263Z,4.80
2017-10-16T10:05:36.863Z,5.00
2017-10-16T10:08:04.628Z,4.30
2017-10-16T10:10:32.796Z,4.60
2017-10-16T10:13:01.488Z,4.93
2017-10-16T10:15:29.073Z,4.40
2017-10-16T10:17:56.683Z,5.00
2017-10-16T10:20:27.023Z,4.50
2017-10-16T10:22:56.751Z,4.37
2017-10-16T10:25:24.554Z,5.43
2017-10-16T10:27:52.495Z,5.10
2017-10-16T10:30:20.080Z,4.87
2017-10-16T10:32:47.705Z,4.80
2017-10-16T10:35:16.382Z,5.47
2017-10-16T10:37:43.987Z,4.80
2017-10-16T10:40:11.886Z,5.23
2017-10-16T10:42:40.078Z,5.27
2017-10-16T10:45:08.695Z,5.33
2017-10-16T10:47:36.982Z,5.30
2017-10-16T10:50:05.325Z,4.73
2017-10-16T10:52:32.911Z,4.97
2017-10-16T10:55:01.302Z,5.47
2017-10-16T10:57:29.625Z,5.60
2017-10-16T10:59:57.210Z,5.50
2017-10-16T11:02:24.805Z,5.50
2017-10-16T11:04:52.430Z,5.60
2017-10-16T11:07:20.012Z,4.53
2017-10-16T11:09:47.550Z,5.20
2017-10-16T11:12:15.255Z,6.47
2017-10-16T11:14:43.605Z,6.10
2017-10-16T11:17:11.258Z,6.67
2017-10-16T11:19:38.865Z,6.07
2017-10-16T11:22:06.471Z,6.10
2017-10-16T11:24:34.082Z,5.93
2017-10-16T11:27:01.675Z,6.23
2017-10-16T11:29:30.047Z,6.27
2017-10-16T11:31:57.634Z,5.30
2017-10-16T11:34:26.027Z,5.93
2017-10-16T11:36:54.722Z,6.13
2017-10-16T11:39:23.120Z,6.03
2017-10-16T11:41:50.729Z,6.40
2017-10-16T11:44:18.352Z,5.70
2017-10-16T11:46:45.964Z,6.23
2017-10-16T11:49:14.351Z,5.90
2017-10-16T11:51:42.060Z,6.27
2017-10-16T11:54:09.649Z,5.90
2017-10-16T11:56:37.265Z,6.60
2017-10-16T11:59:05.664Z,5.80
2017-10-16T12:01:33.282Z,7.17
2017-10-16T12:04:01.271Z,6.30
2017-10-16T12:06:28.894Z,6.13
2017-10-16T12:08:56.812Z,5.87
2017-10-16T12:11:24.567Z,5.83
2017-10-16T12:13:52.183Z,6.80
2017-10-16T12:16:19.781Z,7.20
2017-10-16T12:18:48.331Z,5.53
2017-10-16T12:21:16.054Z,7.07
2017-10-16T12:23:43.752Z,5.53
2017-10-16T12:26:12.125Z,5.90
2017-10-16T12:28:40.185Z,5.93
2017-10-16T12:31:07.972Z,6.43
2017-10-16T12:33:36.571Z,6.03
2017-10-16T12:36:04.404Z,6.30
2017-10-16T12:38:32.082Z,6.13
2017-10-16T12:40:59.690Z,6.23
2017-10-16T12:43:28.052Z,6.60
2017-10-16T12:45:56.404Z,6.60
2017-10-16T12:48:24.029Z,7.30
2017-10-16T12:50:51.731Z,7.70
2017-10-16T12:53:19.286Z,6.60
2017-10-16T12:55:46.881Z,6.30
2017-10-16T12:58:14.502Z,6.47
2017-10-16T13:00:42.709Z,6.40
2017-10-16T13:03:11.379Z,7.17
2017-10-16T13:05:38.946Z,6.30
2017-10-16T13:08:06.766Z,7.23
2017-10-16T13:10:35.108Z,6.37
2017-10-16T13:13:03.613Z,6.27
2017-10-16T13:15:31.251Z,6.30
2017-10-16T13:17:59.135Z,6.67
2017-10-16T13:20:26.727Z,7.00
2017-10-16T13:22:54.285Z,6.80
2017-10-16T13:25:22.512Z,6.80
2017-10-16T13:27:50.906Z,7.40
2017-10-16T13:30:18.572Z,7.07
2017-10-16T13:32:46.427Z,6.40
2017-10-16T13:35:14.417Z,6.00
2017-10-16T13:37:42.207Z,5.93
2017-10-16T13:40:10.808Z,6.03
2017-10-16T13:42:38.473Z,5.77
2017-10-16T13:45:06.223Z,6.77
2017-10-16T13:47:33.876Z,6.93
2017-10-16T13:50:10.033Z,5.70
2017-10-16T13:52:41.648Z,6.10
2017-10-16T13:55:16.181Z,6.43
2017-10-16T13:57:53.410Z,6.73
2017-10-16T14:00:25.244Z,6.47
2017-10-16T14:02:59.071Z,6.80
2017-10-16T14:05:33.522Z,6.40
2017-10-16T14:08:08.720Z,6.70
2017-10-16T14:10:45.346Z,6.60
2017-10-16T14:13:19.191Z,7.07
2017-10-16T14:15:54.630Z,6.43
2017-10-16T14:18:23.824Z,6.37
2017-10-16T14:20:52.546Z,6.80
2017-10-16T14:23:20.964Z,6.43
2017-10-16T14:25:48.542Z,6.00
2017-10-16T14:28:16.149Z,5.60
2017-10-16T14:30:44.534Z,5.90
2017-10-16T14:33:12.977Z,6.03
2017-10-16T14:35:40.601Z,6.40
2017-10-16T14:38:09.031Z,6.43
2017-10-16T14:40:36.642Z,6.30
2017-10-16T14:43:05.499Z,5.87
2017-10-16T14:45:33.955Z,6.10
2017-10-16T14:48:01.857Z,6.00
2017-10-16T14:50:30.239Z,6.30
2017-10-16T14:52:58.109Z,6.30
2017-10-16T14:55:25.716Z,5.97
2017-10-16T14:57:53.383Z,6.20
2017-10-16T15:00:21.047Z,5.60
2017-10-16T15:03:03.338Z,7.17
2017-10-16T15:05:31.756Z,5.40
2017-10-16T15:08:00.457Z,5.90
2017-10-16T15:10:28.238Z,5.83
2017-10-16T15:13:01.480Z,5.43
2017-10-16T15:15:29.887Z,5.80
2017-10-16T15:17:57.695Z,6.47
2017-10-16T15:20:25.494Z,5.50
2017-10-16T15:22:53.675Z,5.70
2017-10-16T15:25:21.326Z,6.50
2017-10-16T15:30:30.761Z,5.80
2017-10-16T15:32:58.744Z,6.03
2017-10-16T15:35:27.586Z,5.83
2017-10-16T15:37:55.300Z,6.37
2017-10-16T15:40:23.033Z,6.43
2017-10-16T15:42:51.625Z,6.37
2017-10-16T15:45:19.251Z,7.00
2017-10-16T15:47:46.858Z,6.77
2017-10-16T15:50:14.896Z,7.20
2017-10-16T15:52:43.282Z,7.53
2017-10-16T15:55:11.652Z,7.50
2017-10-16T15:57:40.073Z,7.63
2017-10-16T16:00:07.704Z,9.70
2017-10-16T16:02:36.142Z,8.40
2017-10-16T16:05:03.822Z,9.50
2017-10-16T16:07:32.378Z,7.63
2017-10-16T16:10:00.008Z,8.67
2017-10-16T16:12:27.646Z,7.60
2017-10-16T16:14:56.045Z,6.37
2017-10-16T16:17:23.697Z,7.07
2017-10-16T16:19:51.307Z,5.93
2017-10-16T16:22:19.657Z,5.77
2017-10-16T16:24:47.270Z,5.83
2017-10-16T16:27:15.978Z,5.70
2017-10-16T16:29:43.622Z,6.20
2017-10-16T16:32:11.355Z,5.73
2017-10-16T16:34:39.536Z,7.80
2017-10-16T16:37:07.195Z,5.73
2017-10-16T16:39:34.853Z,6.63
2017-10-16T16:42:02.479Z,5.93
2017-10-16T16:44:30.112Z,6.07
2017-10-16T16:46:58.517Z,6.93
2017-10-16T16:49:26.828Z,6.27
2017-10-16T16:51:54.426Z,5.83
2017-10-16T16:54:22.030Z,6.13
2017-10-16T16:56:49.644Z,6.70
2017-10-16T16:59:17.257Z,6.73
2017-10-16T17:01:45.587Z,5.67
2017-10-16T17:04:13.320Z,6.43
2017-10-16T17:06:40.919Z,6.70
2017-10-16T17:09:08.536Z,6.57
2017-10-16T17:11:36.890Z,8.13
2017-10-16T17:14:04.620Z,6.80
2017-10-16T17:16:32.227Z,6.97
2017-10-16T17:18:59.804Z,6.83
2017-10-16T17:21:29.212Z,5.90
2017-10-16T17:23:57.555Z,5.70
2017-10-16T17:26:25.698Z,6.77
2017-10-16T17:28:53.310Z,6.37
2017-10-16T17:31:20.934Z,6.40
2017-10-16T17:33:50.157Z,6.00
2017-10-16T17:36:19.228Z,6.20
2017-10-16T17:38:47.600Z,6.30
2017-10-16T17:41:15.951Z,5.80
2017-10-16T17:43:43.697Z,5.93
2017-10-16T17:46:11.349Z,6.10
2017-10-16T17:48:39.003Z,6.60
2017-10-16T17:51:08.700Z,5.60
2017-10-16T17:53:37.390Z,5.80
2017-10-16T17:56:06.697Z,5.20
2017-10-16T17:58:35.367Z,6.63
2017-10-16T18:01:03.059Z,6.60
2017-10-16T18:03:30.785Z,6.50
2017-10-16T18:05:58.968Z,6.13
2017-10-16T18:08:28.832Z,6.47
2017-10-16T18:10:57.553Z,6.57
2017-10-16T18:13:27.023Z,6.37
2017-10-16T18:15:56.591Z,6.27
2017-10-16T18:18:24.187Z,6.23
2017-10-16T18:20:52.576Z,7.13
2017-10-16T18:23:20.977Z,6.87
2017-10-16T18:25:48.789Z,6.17
2017-10-16T18:28:16.386Z,7.60
2017-10-16T18:30:44.740Z,6.43
2017-10-16T18:33:14.300Z,7.27
2017-10-16T18:35:41.932Z,6.63
2017-10-16T18:38:10.411Z,8.60
2017-10-16T18:40:41.683Z,8.60
2017-10-16T18:43:09.301Z,7.43
2017-10-16T18:45:37.000Z,7.97
2017-10-16T18:48:04.932Z,8.70
2017-10-16T18:50:32.553Z,7.30
2017-10-16T18:53:00.998Z,6.57
2017-10-16T18:55:28.696Z,6.80
2017-10-16T18:57:57.144Z,8.37
2017-10-16T19:00:26.947Z,6.90
2017-10-16T19:02:55.209Z,7.60
2017-10-16T19:05:22.838Z,7.33
2017-10-16T19:07:51.238Z,8.13
2017-10-16T19:10:20.294Z,8.60
2017-10-16T19:12:48.027Z,8.47
2017-10-16T19:15:19.106Z,9.03
2017-10-16T19:17:46.828Z,7.70
2017-10-16T19:20:14.611Z,8.67
2017-10-16T19:22:51.234Z,8.60
2017-10-16T19:25:18.988Z,8.07
2017-10-16T19:27:46.654Z,9.60
2017-10-16T19:30:14.864Z,9.53
2017-10-16T19:32:42.570Z,9.63
2017-10-16T19:35:10.538Z,9.97
2017-10-16T19:37:38.451Z,10.07
2017-10-16T19:40:06.208Z,8.43
2017-10-16T19:42:34.915Z,8.57
2017-10-16T19:45:02.487Z,8.47
2017-10-16T19:47:30.065Z,10.60
2017-10-16T19:49:57.749Z,10.13
2017-10-16T19:52:26.146Z,11.40
2017-10-16T19:54:53.976Z,8.90
2017-10-16T19:57:21.723Z,10.30
2017-10-16T19:59:49.354Z,10.60
2017-10-16T20:02:17.080Z,10.30
2017-10-16T20:04:44.705Z,10.10
2017-10-16T20:07:12.332Z,8.77
2017-10-16T20:09:40.039Z,9.00
2017-10-16T20:12:07.652Z,9.93
2017-10-16T20:14:35.516Z,8.60
2017-10-16T20:17:04.239Z,8.77
2017-10-16T20:19:32.625Z,9.20
2017-10-16T20:22:01.211Z,9.20
2017-10-16T20:24:29.976Z,9.37
2017-10-16T20:26:58.385Z,9.40
2017-10-16T20:29:27.028Z,9.70
2017-10-16T20:31:54.649Z,8.87
2017-10-16T20:34:23.535Z,9.13
2017-10-16T20:36:51.133Z,9.00
2017-10-16T20:39:19.310Z,9.30
2017-10-16T20:41:47.040Z,9.77
2017-10-16T20:44:14.657Z,9.23
2017-10-16T20:46:42.351Z,10.73
2017-10-16T20:49:09.983Z,9.17
2017-10-16T20:51:37.662Z,9.60
2017-10-16T20:54:05.251Z,9.90
2017-10-16T20:56:32.863Z,8.90
2017-10-16T20:59:01.335Z,8.93
2017-10-16T21:01:29.441Z,9.00
2017-10-16T21:03:58.442Z,9.00
2017-10-16T21:06:26.258Z,9.23
2017-10-16T21:08:54.116Z,8.90
2017-10-16T21:11:24.466Z,10.20
2017-10-16T21:13:52.459Z,10.90
2017-10-16T21:16:20.606Z,10.30
2017-10-16T21:18:48.403Z,11.63
2017-10-16T21:21:17.039Z,10.23
2017-10-16T21:23:45.366Z,9.80
2017-10-16T21:26:13.832Z,10.67
2017-10-16T21:28:41.521Z,9.70
2017-10-16T21:31:09.231Z,9.60
2017-10-16T21:33:37.485Z,9.97
2017-10-16T21:36:05.573Z,10.07
2017-10-16T21:38:33.189Z,10.00
2017-10-16T21:41:00.750Z,9.80
2017-10-16T21:43:31.415Z,8.57
2017-10-16T21:45:59.114Z,8.83
2017-10-16T21:48:27.876Z,8.57
2017-10-16T21:50:56.538Z,8.77
2017-10-16T21:53:24.661Z,10.90
2017-10-16T21:55:52.521Z,9.80
2017-10-16T21:58:20.378Z,9.93
2017-10-16T22:00:48.294Z,10.63
2017-10-16T22:03:16.141Z,9.00
2017-10-16T22:05:43.864Z,10.07
2017-10-16T22:08:11.482Z,9.47
2017-10-16T22:10:39.080Z,10.40
2017-10-16T22:13:06.668Z,10.07
2017-10-16T22:15:34.322Z,9.93
2017-10-16T22:18:01.924Z,9.70
2017-10-16T22:20:30.334Z,9.77
2017-10-16T22:22:57.931Z,9.70
2017-10-16T22:25:25.583Z,10.70
2017-10-16T22:27:53.218Z,9.87
2017-10-16T22:30:21.598Z,10.10
2017-10-16T22:32:49.207Z,9.80
2017-10-16T22:35:16.756Z,9.37
2017-10-16T22:37:44.315Z,9.67
2017-10-16T22:40:11.897Z,9.60
2017-10-16T22:42:39.499Z,9.10
2017-10-16T22:45:07.144Z,10.83
2017-10-16T22:47:34.837Z,9.17
2017-10-16T22:50:02.436Z,8.90
2017-10-16T22:52:29.995Z,11.20
2017-10-16T22:54:58.324Z,10.53
2017-10-16T22:57:25.875Z,12.13
2017-10-16T22:59:53.459Z,9.87
2017-10-16T23:02:21.017Z,10.33
2017-10-16T23:04:48.614Z,11.10
2017-10-16T23:07:16.166Z,9.80
2017-10-16T23:09:43.757Z,9.57
2017-10-16T23:12:12.114Z,9.20
2017-10-16T23:14:39.714Z,10.80
2017-10-16T23:17:07.278Z,10.03
2017-10-16T23:19:34.914Z,10.80
2017-10-16T23:22:02.450Z,9.63
2017-10-16T23:24:31.047Z,9.80
2017-10-16T23:26:59.436Z,9.90
2017-10-16T23:29:26.981Z,11.53
2017-10-16T23:31:55.334Z,11.90
2017-10-16T23:34:22.918Z,10.17
2017-10-16T23:36:50.475Z,10.03
2017-10-16T23:39:19.721Z,9.80
2017-10-16T23:41:47.290Z,11.77
2017-10-16T23:44:14.877Z,10.63
2017-10-16T23:46:43.233Z,10.87
2017-10-16T23:49:10.815Z,10.50
2017-10-16T23:51:38.385Z,9.77
2017-10-16T23:54:06.739Z,8.33
2017-10-16T23:56:34.312Z,8.90
2017-10-16T23:59:01.864Z,9.53
